Startpagina
METAR-TAF:

METAR-TAF

Vliegvelden :

Aeropuerto de Gran Canaria

Gran Canaria, Spanje

breedte: 27-56N, lengte: 015-23W, hoogte: 23 m

Actueel weer

Dit bericht is 15 minuten geleden gemaakt, om 12:00 UTC
Wind 15 kt uit het noordnoordoosten
Temperatuur 24°C
Vochtigheid 65%
Druk 1017 hPa
Zicht 10 km of meer
Weinig wolken op 3000 ft

METAR: GCLP 221200Z 02015KT 9999 FEW030 24/17 Q1017 NOSIG

Tijdstip: 12:15 (12:15 UTC)

Verwachting

Dit bericht is 4 uur en het 15 minuten geleden gemaakt, om 08:00 UTC
Verwachting geldig van 22 om 09 UTC tot 23 om 09 UTC
Wind 6 kt uit het westen
Zicht 10 km of meer
Verspreide wolken op 3000 ft
Kans 40% :
Tijdelijke
van 22 om 09 UTC tot 22 om 17 UTC
Wind 12 kt uit het noorden

TAF: GCLP 220800Z 2209/2309 26006KT 9999 SCT030 TX24/2214Z TN17/2306Z PROB40 TEMPO 2209/2217 36012KT

Waarnemingen en weersverwachtingen van meer dan 4000 vliegvelden (METAR en TAF).

De beschikbare stations zijn de gele en rode punten op de kaart.

Ga met uw muis naar het station om de naam te zien.

Klik dan om waarnemingen en weersverwachtingen te zien.

kaart wijzigen: klik op de groene knoppen met een zwart kruis om in te zoomen, op de groene knop met een streepje om uit te zoomen of op de groene pijlen voor aangrenzende kaarten.


METAR-TAF: